Time;durP1;ratioP1;P1;durP2;ratioP2;P2;SDS_P1;SDS_P2;PMS_P1;PMS_P2;Temp;Humidity;BMP_temperature;BMP_pressure;BME280_temperature;BME280_humidity;BME280_pressure;Samples;Min_cycle;Max_cycle;Signal;HPM_P1;HPM_P2
2023/11/06 00:01:04;;;;;;;0.88;0.20;;;9.20;99.90;;;;;;5134020;27;20546;-60
2023/11/06 00:03:32;;;;;;;0.80;0.20;;;9.10;99.90;;;;;;5133330;27;20902;-58
2023/11/06 00:05:59;;;;;;;0.80;0.20;;;9.10;99.90;;;;;;5133012;27;20429;-60
2023/11/06 00:08:26;;;;;;;0.50;0.20;;;9.10;99.90;;;;;;5132969;27;20418;-59
2023/11/06 00:10:53;;;;;;;2.92;0.20;;;9.10;99.90;;;;;;5132548;27;20871;-59
2023/11/06 00:13:21;;;;;;;0.40;0.20;;;9.00;99.90;;;;;;5133319;27;20851;-60
2023/11/06 00:15:47;;;;;;;0.80;0.20;;;8.90;99.90;;;;;;5133384;27;20506;-60
2023/11/06 00:18:14;;;;;;;0.40;0.20;;;9.00;99.90;;;;;;5131836;27;20410;-60
2023/11/06 00:20:44;;;;;;;0.30;0.20;;;8.90;99.90;;;;;;5131111;27;20890;-60
2023/11/06 00:23:11;;;;;;;0.95;0.20;;;8.90;99.90;;;;;;5131906;27;20426;-60
2023/11/06 00:25:38;;;;;;;0.70;0.20;;;8.90;99.90;;;;;;5131257;27;20418;-60
2023/11/06 00:28:05;;;;;;;1.80;0.20;;;8.80;99.90;;;;;;5131769;27;20786;-60
2023/11/06 00:30:32;;;;;;;0.40;0.20;;;8.80;99.90;;;;;;5130640;27;20694;-60
2023/11/06 00:32:59;;;;;;;0.70;0.20;;;9.00;99.90;;;;;;5131239;27;20419;-60
2023/11/06 00:35:26;;;;;;;0.90;0.20;;;9.00;99.90;;;;;;5132106;27;20471;-60
2023/11/06 00:37:55;;;;;;;0.40;0.20;;;9.20;99.90;;;;;;5131697;27;20780;-60
2023/11/06 00:40:21;;;;;;;0.43;0.20;;;9.10;99.90;;;;;;5131960;27;20562;-59
2023/11/06 00:42:49;;;;;;;0.70;0.25;;;9.00;99.90;;;;;;5132877;27;20856;-60
2023/11/06 00:45:16;;;;;;;0.50;0.20;;;8.90;99.90;;;;;;5132191;27;20403;-60
2023/11/06 00:47:43;;;;;;;0.50;0.20;;;8.90;99.90;;;;;;5132734;27;20906;-60
2023/11/06 00:50:11;;;;;;;0.40;0.20;;;8.90;99.90;;;;;;5132739;27;20422;-59
2023/11/06 00:52:38;;;;;;;0.57;0.20;;;8.90;99.90;;;;;;5133663;27;20841;-60
2023/11/06 00:55:07;;;;;;;0.80;0.20;;;8.90;99.90;;;;;;5135223;27;20512;-59
2023/11/06 00:57:37;;;;;;;0.50;0.20;;;8.90;99.90;;;;;;5136492;27;20422;-59
2023/11/06 01:00:09;;;;;;;1.20;0.30;;;8.80;99.90;;;;;;5137121;27;20767;-59
2023/11/06 01:02:37;;;;;;;0.45;0.20;;;8.80;99.90;;;;;;5137077;27;20778;-59
2023/11/06 01:05:05;;;;;;;0.50;0.20;;;8.80;99.90;;;;;;5136005;27;20423;-60
2023/11/06 01:07:32;;;;;;;0.60;0.20;;;8.80;99.90;;;;;;5136972;27;20458;-60
2023/11/06 01:09:59;;;;;;;1.50;0.30;;;8.80;99.90;;;;;;5137114;27;20418;-58
2023/11/06 01:12:28;;;;;;;1.00;0.20;;;8.80;99.90;;;;;;5136223;27;20437;-59
2023/11/06 01:14:55;;;;;;;0.50;0.20;;;8.90;99.90;;;;;;5136164;27;20414;-59
2023/11/06 01:17:22;;;;;;;2.50;0.20;;;9.00;99.90;;;;;;5136816;27;20480;-59
2023/11/06 01:19:49;;;;;;;0.85;0.20;;;9.00;99.90;;;;;;5136330;27;20418;-59
2023/11/06 01:22:15;;;;;;;1.00;0.20;;;9.00;99.90;;;;;;5135686;27;20427;-59
2023/11/06 01:24:43;;;;;;;0.40;0.20;;;9.00;99.90;;;;;;5136067;27;20440;-59
2023/11/06 01:27:10;;;;;;;0.70;0.20;;;9.00;99.90;;;;;;5135920;27;20763;-60
2023/11/06 01:29:39;;;;;;;0.73;0.25;;;9.00;99.90;;;;;;5135356;27;20778;-60
2023/11/06 01:32:07;;;;;;;0.47;0.20;;;9.00;99.90;;;;;;5136543;27;20875;-58
2023/11/06 01:34:33;;;;;;;0.60;0.20;;;9.00;99.90;;;;;;5136010;27;20422;-59
2023/11/06 01:37:00;;;;;;;0.43;0.20;;;9.00;99.90;;;;;;5135941;27;20430;-59
2023/11/06 01:39:27;;;;;;;0.40;0.20;;;9.00;99.90;;;;;;5135379;27;20410;-59
2023/11/06 01:41:55;;;;;;;0.98;0.20;;;8.90;99.90;;;;;;5135323;27;20411;-59
2023/11/06 01:44:22;;;;;;;0.50;0.20;;;9.00;99.90;;;;;;5135227;27;21064;-59
2023/11/06 01:46:52;;;;;;;1.48;0.20;;;9.00;99.90;;;;;;5135197;27;20426;-59
2023/11/06 01:49:19;;;;;;;0.50;0.20;;;9.10;99.90;;;;;;5134819;27;20846;-59
2023/11/06 01:51:46;;;;;;;1.30;0.20;;;9.10;99.90;;;;;;5135437;27;20426;-59
2023/11/06 01:54:14;;;;;;;0.50;0.20;;;9.20;99.90;;;;;;5134537;27;20471;-59
2023/11/06 01:56:43;;;;;;;0.50;0.20;;;9.20;99.90;;;;;;5135032;27;20426;-59
2023/11/06 01:59:10;;;;;;;1.40;0.20;;;9.20;99.90;;;;;;5136222;27;20422;-59
2023/11/06 02:01:41;;;;;;;0.80;0.20;;;9.20;99.90;;;;;;5135195;27;20498;-59
2023/11/06 02:04:14;;;;;;;1.00;0.20;;;9.20;99.90;;;;;;5135230;27;20467;-59
2023/11/06 02:06:43;;;;;;;1.75;0.20;;;9.20;99.90;;;;;;5136083;27;20433;-59
2023/11/06 02:09:10;;;;;;;0.90;0.15;;;9.30;99.90;;;;;;5135345;27;20454;-59
2023/11/06 02:11:37;;;;;;;0.50;0.20;;;9.30;99.90;;;;;;5134443;27;20422;-59
2023/11/06 02:14:04;;;;;;;0.30;0.10;;;9.30;99.90;;;;;;5135067;27;20898;-59
2023/11/06 02:16:31;;;;;;;0.50;0.30;;;9.30;99.90;;;;;;5134688;27;20638;-59
2023/11/06 02:18:58;;;;;;;0.40;0.20;;;9.40;99.90;;;;;;5135166;27;20470;-59
2023/11/06 02:21:27;;;;;;;0.40;0.10;;;9.40;99.90;;;;;;5134582;27;20406;-59
2023/11/06 02:23:55;;;;;;;0.63;0.10;;;9.50;99.90;;;;;;5135077;27;20418;-60
2023/11/06 02:26:22;;;;;;;1.00;0.20;;;9.50;99.90;;;;;;5135628;27;20418;-59
2023/11/06 02:28:53;;;;;;;0.90;0.20;;;9.70;99.90;;;;;;5134717;27;20844;-60
2023/11/06 02:31:20;;;;;;;0.47;0.20;;;9.50;99.90;;;;;;5134278;27;20414;-59
2023/11/06 02:33:47;;;;;;;1.00;0.20;;;9.60;99.90;;;;;;5134665;27;20946;-60
2023/11/06 02:36:15;;;;;;;0.60;0.20;;;9.50;99.90;;;;;;5134457;27;20442;-60
2023/11/06 02:38:42;;;;;;;0.45;0.20;;;9.50;99.90;;;;;;5133795;27;20482;-59
2023/11/06 02:41:11;;;;;;;0.35;0.10;;;9.50;99.90;;;;;;5134247;27;20422;-59
2023/11/06 02:43:38;;;;;;;1.38;0.20;;;9.40;99.90;;;;;;5135120;27;20479;-59
2023/11/06 02:46:05;;;;;;;0.75;0.10;;;9.40;99.90;;;;;;5134468;27;20838;-59
2023/11/06 02:48:32;;;;;;;0.63;0.17;;;9.30;99.90;;;;;;5134038;27;20678;-59
2023/11/06 02:50:59;;;;;;;0.80;0.20;;;9.20;99.90;;;;;;5134432;27;20414;-59
2023/11/06 02:53:26;;;;;;;1.00;0.10;;;9.30;99.90;;;;;;5133828;27;20422;-59
2023/11/06 02:55:53;;;;;;;1.40;0.10;;;9.30;99.90;;;;;;5135046;27;20780;-59
2023/11/06 02:58:22;;;;;;;0.50;0.20;;;9.20;99.90;;;;;;5134131;27;20430;-60
2023/11/06 03:00:49;;;;;;;0.50;0.10;;;9.20;99.90;;;;;;5133943;27;20458;-60
2023/11/06 03:03:16;;;;;;;1.10;0.10;;;9.20;99.90;;;;;;5134490;27;20423;-59
2023/11/06 03:05:44;;;;;;;1.25;0.20;;;9.20;99.90;;;;;;5134778;27;20482;-60
2023/11/06 03:08:10;;;;;;;0.68;0.20;;;9.20;99.90;;;;;;5135454;27;20421;-60
2023/11/06 03:10:38;;;;;;;2.00;0.20;;;9.20;99.90;;;;;;5134616;27;20415;-60
2023/11/06 03:13:07;;;;;;;0.80;0.20;;;9.20;99.90;;;;;;5133723;27;20414;-58
2023/11/06 03:15:35;;;;;;;0.50;0.20;;;9.20;99.90;;;;;;5133151;27;20894;-58
2023/11/06 03:18:03;;;;;;;1.00;0.20;;;9.10;99.90;;;;;;5133681;27;20430;-58
2023/11/06 03:20:30;;;;;;;0.40;0.10;;;9.10;99.90;;;;;;5133263;27;20741;-58
2023/11/06 03:22:57;;;;;;;0.60;0.20;;;9.00;99.90;;;;;;5132769;27;20783;-59
2023/11/06 03:25:24;;;;;;;0.40;0.20;;;8.90;99.90;;;;;;5133321;27;20551;-59
2023/11/06 03:27:51;;;;;;;1.40;0.20;;;8.90;99.90;;;;;;5132529;27;20725;-59
2023/11/06 03:30:18;;;;;;;0.40;0.10;;;8.90;99.90;;;;;;5132624;27;20402;-59
2023/11/06 03:32:47;;;;;;;0.50;0.10;;;8.90;99.90;;;;;;5132492;27;20603;-58
2023/11/06 03:35:14;;;;;;;0.98;0.20;;;8.90;99.90;;;;;;5133114;27;20430;-59
2023/11/06 03:37:41;;;;;;;0.50;0.20;;;8.90;99.90;;;;;;5133288;27;20431;-59
2023/11/06 03:40:09;;;;;;;0.90;0.20;;;9.00;99.90;;;;;;5133005;27;20482;-59
2023/11/06 03:42:36;;;;;;;0.40;0.10;;;9.00;99.90;;;;;;5133657;27;20484;-59
2023/11/06 03:45:04;;;;;;;0.55;0.20;;;9.10;99.90;;;;;;5133172;27;20418;-59
2023/11/06 03:47:30;;;;;;;0.80;0.10;;;9.10;99.90;;;;;;5133509;27;20422;-59
2023/11/06 03:49:59;;;;;;;0.70;0.20;;;9.30;99.90;;;;;;5132952;27;20488;-59
2023/11/06 03:52:26;;;;;;;0.60;0.20;;;9.30;99.90;;;;;;5133164;27;20426;-58
2023/11/06 03:54:53;;;;;;;0.45;0.20;;;9.30;99.90;;;;;;5132998;27;20832;-59
2023/11/06 03:57:20;;;;;;;0.35;0.10;;;9.20;99.90;;;;;;5131485;27;20767;-58
2023/11/06 03:59:47;;;;;;;0.40;0.20;;;9.20;99.90;;;;;;5130469;27;21096;-58
2023/11/06 04:02:14;;;;;;;1.73;0.20;;;9.20;99.90;;;;;;5130221;27;20433;-59
2023/11/06 04:04:41;;;;;;;0.60;0.20;;;9.30;99.90;;;;;;5130329;27;20418;-59
2023/11/06 04:07:10;;;;;;;0.50;0.20;;;9.30;99.90;;;;;;5130706;27;20442;-59
2023/11/06 04:09:37;;;;;;;2.20;0.20;;;9.30;99.90;;;;;;5130012;27;20414;-59
2023/11/06 04:12:05;;;;;;;1.10;0.20;;;9.40;99.90;;;;;;5131769;27;20414;-59
2023/11/06 04:14:32;;;;;;;2.20;0.20;;;9.40;99.90;;;;;;5133557;27;20848;-59
2023/11/06 04:16:59;;;;;;;1.50;0.20;;;9.40;99.90;;;;;;5131657;27;20427;-59
2023/11/06 04:19:26;;;;;;;1.50;0.20;;;9.40;99.90;;;;;;5132156;27;20426;-59
2023/11/06 04:21:53;;;;;;;1.10;0.20;;;9.50;99.90;;;;;;5132331;27;20475;-59
2023/11/06 04:24:22;;;;;;;0.40;0.20;;;9.60;99.90;;;;;;5132075;27;20406;-59
2023/11/06 04:26:49;;;;;;;0.60;0.20;;;9.70;99.90;;;;;;5131734;27;20414;-58
2023/11/06 04:29:16;;;;;;;0.40;0.10;;;9.70;99.90;;;;;;5132283;27;20853;-59
2023/11/06 04:31:43;;;;;;;0.40;0.20;;;9.70;99.90;;;;;;5132471;27;20548;-58
2023/11/06 04:34:10;;;;;;;0.40;0.20;;;9.60;99.90;;;;;;5132953;27;20787;-59
2023/11/06 04:36:37;;;;;;;0.57;0.20;;;9.70;99.90;;;;;;5133378;27;20787;-59
2023/11/06 04:39:05;;;;;;;0.93;0.20;;;9.60;99.90;;;;;;5133440;27;20433;-59
2023/11/06 04:41:33;;;;;;;0.40;0.20;;;9.70;99.90;;;;;;5132434;27;20717;-59
2023/11/06 04:44:00;;;;;;;0.90;0.20;;;9.70;99.90;;;;;;5132006;27;20479;-59
2023/11/06 04:46:27;;;;;;;1.10;0.20;;;9.70;99.90;;;;;;5131231;27;20423;-59
2023/11/06 04:48:54;;;;;;;0.70;0.20;;;9.70;99.90;;;;;;5131961;27;20418;-59
2023/11/06 04:51:21;;;;;;;0.50;0.20;;;9.60;99.90;;;;;;5132628;27;20513;-59
2023/11/06 04:53:48;;;;;;;0.65;0.20;;;9.70;99.90;;;;;;5131463;27;20418;-60
2023/11/06 04:56:15;;;;;;;0.40;0.20;;;9.60;99.90;;;;;;5131145;27;20414;-59
2023/11/06 04:58:44;;;;;;;0.30;0.20;;;9.50;99.90;;;;;;5129998;27;20502;-59
2023/11/06 05:01:10;;;;;;;0.40;0.20;;;9.40;99.90;;;;;;5130303;27;20423;-59
2023/11/06 05:03:38;;;;;;;1.80;0.20;;;9.30;99.90;;;;;;5130537;27;20604;-59
2023/11/06 05:06:06;;;;;;;0.50;0.20;;;9.20;99.90;;;;;;5130572;27;20426;-55
2023/11/06 05:08:34;;;;;;;0.50;0.20;;;9.20;99.90;;;;;;5129681;27;20422;-55
2023/11/06 05:11:01;;;;;;;0.47;0.20;;;9.10;99.90;;;;;;5130687;27;20516;-55
2023/11/06 05:13:28;;;;;;;0.90;0.20;;;9.10;99.90;;;;;;5131591;27;20491;-55
2023/11/06 05:15:56;;;;;;;0.80;0.20;;;9.00;99.90;;;;;;5131571;27;20474;-56
2023/11/06 05:18:23;;;;;;;1.30;0.10;;;9.20;99.90;;;;;;5130376;27;20438;-55
2023/11/06 05:20:50;;;;;;;0.45;0.20;;;9.10;99.90;;;;;;5130347;27;20414;-55
2023/11/06 05:23:17;;;;;;;1.10;0.20;;;9.00;99.90;;;;;;5130339;27;20911;-55
2023/11/06 05:25:44;;;;;;;0.85;0.20;;;9.00;99.90;;;;;;5128957;27;20769;-56
2023/11/06 05:28:11;;;;;;;0.40;0.10;;;9.00;99.90;;;;;;5127454;27;20411;-55
2023/11/06 05:30:38;;;;;;;0.40;0.15;;;9.00;99.90;;;;;;5129621;27;20724;-55
2023/11/06 05:33:06;;;;;;;2.10;0.20;;;9.10;99.90;;;;;;5129592;27;20406;-55
2023/11/06 05:35:33;;;;;;;0.40;0.20;;;9.10;99.90;;;;;;5130363;27;20687;-57
2023/11/06 05:38:02;;;;;;;1.50;0.20;;;9.10;99.90;;;;;;5130378;27;20513;-56
2023/11/06 05:40:29;;;;;;;0.77;0.20;;;9.00;99.90;;;;;;5133784;27;20429;-56
2023/11/06 05:42:56;;;;;;;0.60;0.20;;;9.00;99.90;;;;;;5134681;27;20452;-57
2023/11/06 05:45:23;;;;;;;1.27;0.20;;;9.10;99.90;;;;;;5133878;27;20467;-56
2023/11/06 05:47:51;;;;;;;0.40;0.20;;;9.10;99.90;;;;;;5133990;27;20420;-57
2023/11/06 05:50:19;;;;;;;1.27;0.20;;;9.20;99.90;;;;;;5133984;27;20958;-56
2023/11/06 05:52:46;;;;;;;0.80;0.20;;;9.20;99.90;;;;;;5133865;27;20453;-53
2023/11/06 05:55:13;;;;;;;0.90;0.20;;;9.20;99.90;;;;;;5133577;27;20422;-56
2023/11/06 05:57:40;;;;;;;0.68;0.20;;;9.10;99.90;;;;;;5133733;27;20426;-56
2023/11/06 06:00:11;;;;;;;0.80;0.20;;;9.20;99.90;;;;;;5133455;27;20414;-57
2023/11/06 06:02:40;;;;;;;0.40;0.20;;;9.20;99.90;;;;;;5133346;27;21023;-57
2023/11/06 06:05:08;;;;;;;0.30;0.17;;;9.30;99.90;;;;;;5134799;27;20461;-59
2023/11/06 06:07:37;;;;;;;0.60;0.20;;;9.30;99.90;;;;;;5134456;27;20840;-59
2023/11/06 06:10:05;;;;;;;0.80;0.20;;;9.30;99.90;;;;;;5134162;27;20426;-57
2023/11/06 06:12:33;;;;;;;0.90;0.20;;;9.30;99.90;;;;;;5133938;27;20841;-57
2023/11/06 06:15:01;;;;;;;0.80;0.20;;;9.20;99.90;;;;;;5134058;27;20848;-56
2023/11/06 06:17:29;;;;;;;0.70;0.20;;;9.20;99.90;;;;;;5132684;27;20462;-56
2023/11/06 06:19:56;;;;;;;0.50;0.20;;;9.10;99.90;;;;;;5132865;27;20422;-57
2023/11/06 06:22:23;;;;;;;0.40;0.20;;;9.10;99.90;;;;;;5132494;27;20539;-56
2023/11/06 06:24:51;;;;;;;0.50;0.20;;;9.10;99.90;;;;;;5132303;27;20414;-58
2023/11/06 06:27:18;;;;;;;0.50;0.10;;;9.10;99.90;;;;;;5130411;27;20490;-58
2023/11/06 06:29:46;;;;;;;0.63;0.20;;;9.10;99.90;;;;;;5129079;27;20422;-59
2023/11/06 06:32:14;;;;;;;0.60;0.20;;;9.10;99.90;;;;;;5126242;27;20854;-58
2023/11/06 06:34:41;;;;;;;0.40;0.10;;;9.00;99.90;;;;;;5131160;27;20422;-58
2023/11/06 06:37:08;;;;;;;0.50;0.20;;;8.90;97.80;;;;;;5131352;27;20422;-59
2023/11/06 06:39:35;;;;;;;0.52;0.20;;;8.80;99.90;;;;;;5133121;27;20433;-59
2023/11/06 06:42:04;;;;;;;0.50;0.20;;;8.70;99.90;;;;;;5132210;27;21022;-59
2023/11/06 06:44:32;;;;;;;1.40;0.30;;;8.70;99.90;;;;;;5130734;27;20430;-60
2023/11/06 06:46:59;;;;;;;0.40;0.20;;;8.70;99.90;;;;;;5131539;27;20422;-59
2023/11/06 06:49:27;;;;;;;0.50;0.17;;;8.70;99.90;;;;;;5132277;27;20503;-58
2023/11/06 06:51:54;;;;;;;0.30;0.10;;;8.70;99.90;;;;;;5131578;27;20825;-59
2023/11/06 06:54:21;;;;;;;0.50;0.20;;;8.70;99.90;;;;;;5121517;27;20440;-59
2023/11/06 06:56:49;;;;;;;1.10;0.20;;;8.90;99.90;;;;;;5131492;27;20471;-59
2023/11/06 06:59:17;;;;;;;1.20;0.20;;;9.00;99.90;;;;;;5126565;27;20428;-59
2023/11/06 07:01:44;;;;;;;0.40;0.20;;;9.00;99.90;;;;;;5129346;27;20423;-59
2023/11/06 07:04:11;;;;;;;0.70;0.20;;;9.00;99.90;;;;;;5131056;27;20546;-59
2023/11/06 07:06:38;;;;;;;2.10;0.20;;;9.00;99.90;;;;;;5133481;27;20780;-59
2023/11/06 07:09:07;;;;;;;0.50;0.10;;;9.00;94.00;;;;;;5132893;27;20410;-59
2023/11/06 07:11:34;;;;;;;1.15;0.10;;;9.10;99.90;;;;;;5131753;27;20475;-59
2023/11/06 07:14:01;;;;;;;0.60;0.20;;;9.00;89.50;;;;;;5129295;27;20475;-59
2023/11/06 07:16:29;;;;;;;0.70;0.20;;;9.00;92.80;;;;;;5129152;27;20429;-59
2023/11/06 07:18:56;;;;;;;0.40;0.20;;;9.00;99.90;;;;;;5123524;27;20494;-59
2023/11/06 07:21:24;;;;;;;0.90;0.20;;;8.90;99.90;;;;;;5124571;27;20421;-59
2023/11/06 07:23:51;;;;;;;0.88;0.10;;;8.90;99.90;;;;;;5115170;27;20458;-59
2023/11/06 07:26:18;;;;;;;0.30;0.13;;;9.10;99.90;;;;;;5128348;27;20434;-59
2023/11/06 07:28:45;;;;;;;0.70;0.20;;;9.20;99.90;;;;;;5128146;27;20878;-58
2023/11/06 07:31:13;;;;;;;0.80;0.20;;;9.20;94.80;;;;;;5119905;27;20428;-58
2023/11/06 07:33:41;;;;;;;0.80;0.20;;;9.20;94.10;;;;;;5127543;27;20434;-58
2023/11/06 07:36:09;;;;;;;0.43;0.10;;;9.30;90.80;;;;;;5116065;27;20446;-59
2023/11/06 07:38:36;;;;;;;0.50;0.20;;;9.20;82.90;;;;;;5120121;27;20867;-58
2023/11/06 07:41:03;;;;;;;0.47;0.20;;;9.20;98.70;;;;;;5128775;27;20444;-59
2023/11/06 07:43:30;;;;;;;0.80;0.15;;;9.20;99.90;;;;;;5126973;27;21101;-59
2023/11/06 07:45:57;;;;;;;0.50;0.20;;;9.30;99.90;;;;;;5125338;27;20438;-59
2023/11/06 07:48:24;;;;;;;0.45;0.20;;;9.30;97.10;;;;;;5122746;27;20428;-59
2023/11/06 07:50:55;;;;;;;0.40;0.10;;;9.40;96.50;;;;;;5117852;27;20490;-59
2023/11/06 07:53:22;;;;;;;0.40;0.20;;;9.40;64.60;;;;;;5124064;27;20495;-60
2023/11/06 07:55:49;;;;;;;0.30;0.10;;;9.50;80.30;;;;;;5126963;27;20888;-59
2023/11/06 07:58:16;;;;;;;0.40;0.10;;;9.50;62.10;;;;;;5122675;27;20464;-59
2023/11/06 08:00:43;;;;;;;0.57;0.20;;;9.60;82.90;;;;;;5122337;27;21044;-59
2023/11/06 08:03:10;;;;;;;0.40;0.20;;;9.70;57.60;;;;;;5124120;27;20434;-59
2023/11/06 08:05:38;;;;;;;0.40;0.20;;;9.80;47.10;;;;;;5118420;27;20438;-59
2023/11/06 08:08:08;;;;;;;1.25;0.20;;;9.80;52.90;;;;;;5124456;27;20756;-59
2023/11/06 08:10:35;;;;;;;0.90;0.20;;;9.90;66.30;;;;;;5120560;27;20833;-59
2023/11/06 08:13:02;;;;;;;1.30;0.30;;;10.10;56.20;;;;;;5126361;27;20611;-59
2023/11/06 08:15:29;;;;;;;0.55;0.25;;;10.10;17.70;;;;;;5126972;27;21014;-59
2023/11/06 08:17:56;;;;;;;0.90;0.20;;;10.20;15.90;;;;;;5127230;27;20816;-58
2023/11/06 08:20:26;;;;;;;1.40;0.20;;;10.50;9.10;;;;;;5123600;27;20724;-59
2023/11/06 08:22:53;;;;;;;0.50;0.20;;;10.70;1.00;;;;;;5126878;27;20429;-59
2023/11/06 08:25:24;;;;;;;0.80;0.20;;;10.90;1.00;;;;;;5126397;27;20422;-59
2023/11/06 08:27:52;;;;;;;1.40;0.20;;;10.90;1.00;;;;;;5120876;27;20529;-59
2023/11/06 08:30:23;;;;;;;0.70;0.20;;;10.90;1.00;;;;;;5124755;27;20428;-60
2023/11/06 08:32:50;;;;;;;0.80;0.20;;;10.80;1.00;;;;;;5115202;27;20433;-59
2023/11/06 08:35:17;;;;;;;0.40;0.20;;;10.70;1.00;;;;;;5122797;27;20441;-59
2023/11/06 08:37:45;;;;;;;1.50;0.30;;;10.70;1.00;;;;;;5121942;27;20492;-59
2023/11/06 08:40:17;;;;;;;0.60;0.20;;;10.70;1.00;;;;;;5124487;27;20761;-60
2023/11/06 08:42:45;;;;;;;1.00;0.20;;;10.70;1.00;;;;;;5126058;27;20421;-60
2023/11/06 08:45:12;;;;;;;0.75;0.20;;;10.70;1.00;;;;;;5120737;27;20867;-60
2023/11/06 08:47:40;;;;;;;1.10;0.20;;;10.70;1.00;;;;;;5124958;27;20419;-59
2023/11/06 08:50:08;;;;;;;0.40;0.20;;;10.70;1.00;;;;;;5137386;27;20877;-60
2023/11/06 08:52:37;;;;;;;0.40;0.20;;;10.80;1.00;;;;;;5122361;27;20426;-60
2023/11/06 08:55:05;;;;;;;1.00;0.20;;;10.70;1.00;;;;;;5124469;27;20837;-61
2023/11/06 08:57:32;;;;;;;0.40;0.20;;;10.80;1.00;;;;;;5123043;27;20539;-58
2023/11/06 09:00:01;;;;;;;0.40;0.10;;;10.80;1.00;;;;;;5123694;27;20650;-61
2023/11/06 09:02:28;;;;;;;0.40;0.10;;;10.80;1.00;;;;;;5121220;27;20443;-61
2023/11/06 09:04:55;;;;;;;1.30;0.10;;;10.90;1.00;;;;;;5122395;27;20483;-61
2023/11/06 09:07:23;;;;;;;0.40;0.20;;;10.90;1.00;;;;;;5123934;27;20430;-61
2023/11/06 09:09:50;;;;;;;0.40;0.20;;;11.00;1.00;;;;;;5109268;27;20622;-60
2023/11/06 09:12:17;;;;;;;0.90;0.20;;;11.10;1.00;;;;;;5122404;28;20442;-60
2023/11/06 09:14:44;;;;;;;0.60;0.20;;;11.20;1.00;;;;;;5126678;27;20771;-61
2023/11/06 09:17:13;;;;;;;0.60;0.20;;;11.40;1.00;;;;;;5128417;27;21027;-60
2023/11/06 09:19:40;;;;;;;0.80;0.20;;;11.70;1.00;;;;;;5127181;27;20792;-61
2023/11/06 09:22:08;;;;;;;0.70;0.20;;;11.90;1.00;;;;;;5125332;27;20506;-60
2023/11/06 09:24:35;;;;;;;0.40;0.10;;;12.00;1.00;;;;;;5129625;27;20426;-61
2023/11/06 09:27:03;;;;;;;0.43;0.20;;;11.90;1.00;;;;;;5121903;27;20450;-60
2023/11/06 09:29:30;;;;;;;0.68;0.20;;;11.70;1.00;;;;;;5130895;27;20434;-61
2023/11/06 09:31:57;;;;;;;0.60;0.20;;;11.60;1.00;;;;;;5130327;27;20429;-61
2023/11/06 09:34:25;;;;;;;0.52;0.20;;;11.60;1.00;;;;;;5130762;27;20605;-61
2023/11/06 09:36:52;;;;;;;0.30;0.10;;;11.60;1.00;;;;;;5129897;27;20433;-61
2023/11/06 09:39:21;;;;;;;0.40;0.20;;;11.60;1.00;;;;;;5118124;27;20430;-60
2023/11/06 09:41:49;;;;;;;0.60;0.20;;;11.60;1.00;;;;;;5130024;27;20429;-61
2023/11/06 09:44:18;;;;;;;0.43;0.20;;;11.60;1.00;;;;;;5129500;27;20426;-61
2023/11/06 09:46:46;;;;;;;0.40;0.10;;;11.60;1.00;;;;;;5129277;27;20425;-61
2023/11/06 09:49:17;;;;;;;0.40;0.20;;;11.60;1.00;;;;;;5129910;27;20767;-61
2023/11/06 09:51:53;;;;;;;0.60;0.20;;;11.60;1.00;;;;;;5129453;27;20433;-61
2023/11/06 09:54:23;;;;;;;0.75;0.13;;;11.80;1.00;;;;;;5122854;27;20430;-61
2023/11/06 09:56:51;;;;;;;0.50;0.10;;;11.90;1.00;;;;;;5128366;27;20720;-59
2023/11/06 09:59:18;;;;;;;0.40;0.20;;;11.80;99.90;;;;;;5129420;27;20430;-59
2023/11/06 10:01:46;;;;;;;0.70;0.10;;;11.80;99.90;;;;;;5127718;27;20430;-60
2023/11/06 10:04:13;;;;;;;0.50;0.20;;;11.80;99.90;;;;;;5126613;27;20778;-60
2023/11/06 10:06:42;;;;;;;1.20;0.30;;;11.90;99.90;;;;;;5130107;27;20422;-60
2023/11/06 10:09:22;;;;;;;0.80;0.20;;;12.00;99.90;;;;;;5129734;27;20897;-60
2023/11/06 10:11:49;;;;;;;0.90;0.20;;;12.10;99.90;;;;;;5112620;27;20419;-60
2023/11/06 10:14:16;;;;;;;0.90;0.30;;;12.10;99.90;;;;;;5123582;27;20487;-60
2023/11/06 10:16:43;;;;;;;1.17;0.20;;;12.00;99.90;;;;;;5128084;27;20430;-60
2023/11/06 10:19:12;;;;;;;0.40;0.15;;;12.00;69.40;;;;;;5128749;27;20459;-60
2023/11/06 10:21:40;;;;;;;0.50;0.10;;;12.00;56.50;;;;;;5130021;27;20430;-60
2023/11/06 10:24:09;;;;;;;0.40;0.20;;;12.00;99.90;;;;;;5125031;27;20765;-60
2023/11/06 10:26:38;;;;;;;0.38;0.10;;;12.10;99.90;;;;;;5123101;27;20442;-60
2023/11/06 10:29:10;;;;;;;0.40;0.20;;;12.20;6.60;;;;;;5116288;27;20473;-60
2023/11/06 10:31:39;;;;;;;0.30;0.20;;;12.20;1.00;;;;;;5130609;27;20771;-60
2023/11/06 10:34:25;;;;;;;0.90;0.20;;;12.10;1.00;;;;;;5130729;27;20418;-61
2023/11/06 10:37:07;;;;;;;0.82;0.28;;;12.20;1.00;;;;;;5128694;27;20479;-61
2023/11/06 10:39:34;;;;;;;1.20;0.20;;;12.30;61.20;;;;;;5127867;27;20485;-61
2023/11/06 10:42:05;;;;;;;0.60;0.20;;;12.40;99.90;;;;;;5128185;27;21027;-61
2023/11/06 10:44:34;;;;;;;1.10;0.10;;;12.40;99.90;;;;;;5121466;27;20430;-61
2023/11/06 10:47:07;;;;;;;0.30;0.10;;;12.50;1.00;;;;;;5128769;27;20417;-61
2023/11/06 10:49:35;;;;;;;1.20;0.20;;;12.60;1.00;;;;;;5115643;27;20866;-61
2023/11/06 10:52:06;;;;;;;0.40;0.10;;;12.80;99.90;;;;;;5125573;27;20737;-61
2023/11/06 10:54:35;;;;;;;0.90;0.20;;;13.00;99.90;;;;;;5122941;27;20572;-61
2023/11/06 10:57:05;;;;;;;0.38;0.10;;;13.20;1.00;;;;;;5123307;27;20432;-60
2023/11/06 10:59:32;;;;;;;0.60;0.20;;;13.30;1.00;;;;;;5124997;27;20426;-60
2023/11/06 11:02:00;;;;;;;1.00;0.20;;;13.50;99.90;;;;;;5122653;27;20506;-60
2023/11/06 11:04:29;;;;;;;0.40;0.20;;;13.60;1.00;;;;;;5126016;27;20446;-61
2023/11/06 11:06:58;;;;;;;0.50;0.22;;;13.60;99.90;;;;;;5124168;27;20609;-60
2023/11/06 11:09:27;;;;;;;0.60;0.20;;;13.40;99.90;;;;;;5126803;27;20803;-64
2023/11/06 11:11:55;;;;;;;1.20;0.10;;;13.20;99.90;;;;;;5118597;27;20438;-59
2023/11/06 11:14:23;;;;;;;0.30;0.20;;;13.10;99.90;;;;;;5122498;27;20774;-60
2023/11/06 11:16:52;;;;;;;0.30;0.10;;;13.10;1.00;;;;;;5125484;27;21011;-59
2023/11/06 11:19:24;;;;;;;0.40;0.10;;;13.20;99.90;;;;;;5120784;27;20834;-57
2023/11/06 11:22:01;;;;;;;0.65;0.20;;;13.20;99.90;;;;;;5127645;27;20421;-58
2023/11/06 11:24:51;;;;;;;0.40;0.20;;;13.20;99.90;;;;;;5120450;27;20497;-58
2023/11/06 11:27:21;;;;;;;0.40;0.10;;;13.10;99.90;;;;;;5105924;27;20584;-60
2023/11/06 11:30:12;;;;;;;1.13;0.30;;;13.00;99.90;;;;;;5122483;27;20449;-60
2023/11/06 11:32:51;;;;;;;0.70;0.20;;;13.20;1.00;;;;;;5128055;27;20765;-60
2023/11/06 11:36:01;;;;;;;0.80;0.20;;;13.30;1.00;;;;;;5111919;28;20433;-60
2023/11/06 11:38:36;;;;;;;0.40;0.10;;;13.40;1.00;;;;;;5129589;27;20752;-60
2023/11/06 11:41:21;;;;;;;1.10;0.20;;;13.30;99.90;;;;;;5128216;28;20430;-58
2023/11/06 11:43:49;;;;;;;0.30;0.10;;;13.30;1.00;;;;;;5125739;27;20445;-59
2023/11/06 11:46:57;;;;;;;0.80;0.20;;;13.40;37.30;;;;;;5129474;27;20413;-60
2023/11/06 11:49:43;;;;;;;0.30;0.10;;;13.50;1.00;;;;;;5125863;27;21002;-59
2023/11/06 11:52:13;;;;;;;0.50;0.20;;;13.50;1.00;;;;;;5123021;27;20920;-60
2023/11/06 11:54:40;;;;;;;0.50;0.10;;;13.60;10.50;;;;;;5117757;27;20861;-61
2023/11/06 11:57:08;;;;;;;0.40;0.20;;;13.70;20.20;;;;;;5129082;27;20852;-60
2023/11/06 11:59:45;;;;;;;0.30;0.10;;;13.70;40.40;;;;;;5131683;27;20483;-61
2023/11/06 12:02:26;;;;;;;0.70;0.20;;;13.80;55.70;;;;;;5062113;27;1956742;-61
2023/11/06 12:04:55;;;;;;;0.30;0.20;;;13.90;1.00;;;;;;5130838;27;20462;-62
2023/11/06 12:07:28;;;;;;;0.40;0.10;;;14.00;1.00;;;;;;5114112;27;20500;-62
2023/11/06 12:09:56;;;;;;;0.50;0.10;;;14.10;1.00;;;;;;5125884;27;20614;-61
2023/11/06 12:12:25;;;;;;;0.40;0.10;;;14.00;1.00;;;;;;5128984;27;20438;-61
2023/11/06 12:14:53;;;;;;;0.40;0.20;;;13.90;1.00;;;;;;5128049;27;20618;-62
2023/11/06 12:17:32;;;;;;;0.50;0.15;;;13.80;1.00;;;;;;5129052;27;20483;-61
2023/11/06 12:20:00;;;;;;;0.45;0.20;;;13.80;1.00;;;;;;5126861;27;20857;-61
2023/11/06 12:22:30;;;;;;;0.30;0.10;;;13.80;1.00;;;;;;5129292;27;20861;-61
2023/11/06 12:24:58;;;;;;;1.60;0.15;;;13.70;1.00;;;;;;5128195;27;20525;-61
2023/11/06 12:27:35;;;;;;;0.40;0.10;;;13.70;1.00;;;;;;5117616;27;20773;-62
2023/11/06 12:30:06;;;;;;;0.50;0.10;;;13.70;1.00;;;;;;5125096;27;20667;-61
2023/11/06 12:32:36;;;;;;;0.40;0.20;;;13.60;1.00;;;;;;5122819;27;20434;-61
2023/11/06 12:35:09;;;;;;;0.43;0.20;;;13.70;1.00;;;;;;5123299;27;20745;-61
2023/11/06 12:38:03;;;;;;;0.50;0.10;;;13.80;1.00;;;;;;5124018;27;20497;-61
2023/11/06 12:40:30;;;;;;;0.40;0.10;;;13.80;1.00;;;;;;5075335;27;20437;-62
2023/11/06 12:43:00;;;;;;;0.55;0.20;;;13.70;1.00;;;;;;5124254;27;20501;-62
2023/11/06 12:45:30;;;;;;;0.70;0.20;;;13.80;1.00;;;;;;5127491;27;20438;-60
2023/11/06 12:47:59;;;;;;;0.45;0.20;;;14.00;1.00;;;;;;5126451;27;20430;-62
2023/11/06 12:50:28;;;;;;;0.52;0.30;;;13.90;1.00;;;;;;5128452;27;20414;-62
2023/11/06 12:52:55;;;;;;;0.80;0.25;;;13.90;1.00;;;;;;5126850;27;20466;-62
2023/11/06 12:55:22;;;;;;;0.90;0.10;;;13.80;1.00;;;;;;5127263;27;20853;-61
2023/11/06 12:57:51;;;;;;;0.60;0.10;;;13.70;1.00;;;;;;5127088;27;20410;-61
2023/11/06 13:00:27;;;;;;;0.30;0.10;;;13.50;1.00;;;;;;5128764;27;20438;-61
2023/11/06 13:02:54;;;;;;;1.60;0.10;;;13.50;1.00;;;;;;5122417;27;20522;-62